sensor_id;sensor_type;location;lat;lon;timestamp;pressure;altitude;pressure_sealevel;temperature;humidity
47374;BME280;33123;50.118;10.272;2022-08-19T00:00:26;97199.22;;;22.78;60.90
47374;BME280;33123;50.118;10.272;2022-08-19T00:02:54;97200.09;;;22.70;61.05
47374;BME280;33123;50.118;10.272;2022-08-19T00:05:22;97203.22;;;22.59;61.50
47374;BME280;33123;50.118;10.272;2022-08-19T00:07:49;97200.78;;;22.54;61.56
47374;BME280;33123;50.118;10.272;2022-08-19T00:10:17;97197.78;;;22.44;61.58
47374;BME280;33123;50.118;10.272;2022-08-19T00:12:44;97196.31;;;22.46;62.18
47374;BME280;33123;50.118;10.272;2022-08-19T00:15:13;97194.97;;;22.40;62.33
47374;BME280;33123;50.118;10.272;2022-08-19T00:17:41;97186.13;;;22.39;62.33
47374;BME280;33123;50.118;10.272;2022-08-19T00:20:18;97179.19;;;22.38;62.25
47374;BME280;33123;50.118;10.272;2022-08-19T00:22:46;97172.69;;;22.27;62.47
47374;BME280;33123;50.118;10.272;2022-08-19T00:25:13;97187.00;;;22.31;62.65
47374;BME280;33123;50.118;10.272;2022-08-19T00:27:40;97179.63;;;22.28;62.50
47374;BME280;33123;50.118;10.272;2022-08-19T00:30:08;97173.00;;;22.26;62.68
47374;BME280;33123;50.118;10.272;2022-08-19T00:32:35;97159.16;;;22.24;62.59
47374;BME280;33123;50.118;10.272;2022-08-19T00:35:02;97148.28;;;22.20;62.50
47374;BME280;33123;50.118;10.272;2022-08-19T00:37:31;97158.94;;;22.17;62.53
47374;BME280;33123;50.118;10.272;2022-08-19T00:39:58;97154.56;;;22.12;63.05
47374;BME280;33123;50.118;10.272;2022-08-19T00:42:25;97165.13;;;22.08;62.96
47374;BME280;33123;50.118;10.272;2022-08-19T00:44:53;97163.56;;;22.07;63.15
47374;BME280;33123;50.118;10.272;2022-08-19T00:47:20;97168.81;;;22.04;63.20
47374;BME280;33123;50.118;10.272;2022-08-19T00:49:49;97169.16;;;22.02;63.68
47374;BME280;33123;50.118;10.272;2022-08-19T00:52:19;97163.34;;;22.00;63.27
47374;BME280;33123;50.118;10.272;2022-08-19T00:54:49;97156.41;;;21.99;63.34
47374;BME280;33123;50.118;10.272;2022-08-19T00:57:18;97151.84;;;22.00;63.60
47374;BME280;33123;50.118;10.272;2022-08-19T00:59:51;97146.47;;;22.00;63.45
47374;BME280;33123;50.118;10.272;2022-08-19T01:02:19;97139.53;;;21.99;63.21
47374;BME280;33123;50.118;10.272;2022-08-19T01:04:45;97150.59;;;21.97;63.50
47374;BME280;33123;50.118;10.272;2022-08-19T01:07:12;97157.06;;;21.96;63.55
47374;BME280;33123;50.118;10.272;2022-08-19T01:09:39;97151.69;;;21.96;63.95
47374;BME280;33123;50.118;10.272;2022-08-19T01:12:08;97148.25;;;21.96;63.95
47374;BME280;33123;50.118;10.272;2022-08-19T01:14:36;97145.91;;;21.94;63.75
47374;BME280;33123;50.118;10.272;2022-08-19T01:17:04;97156.16;;;21.92;63.85
47374;BME280;33123;50.118;10.272;2022-08-19T01:19:35;97154.94;;;21.90;63.94
47374;BME280;33123;50.118;10.272;2022-08-19T01:22:06;97157.97;;;21.88;64.08
47374;BME280;33123;50.118;10.272;2022-08-19T01:24:36;97154.81;;;21.86;64.15
47374;BME280;33123;50.118;10.272;2022-08-19T01:27:04;97145.63;;;21.87;64.00
47374;BME280;33123;50.118;10.272;2022-08-19T01:29:31;97139.84;;;21.85;64.16
47374;BME280;33123;50.118;10.272;2022-08-19T01:31:57;97137.16;;;21.85;64.27
47374;BME280;33123;50.118;10.272;2022-08-19T01:34:25;97134.13;;;21.86;64.01
47374;BME280;33123;50.118;10.272;2022-08-19T01:36:51;97133.34;;;21.86;64.02
47374;BME280;33123;50.118;10.272;2022-08-19T01:39:20;97145.19;;;21.85;64.05
47374;BME280;33123;50.118;10.272;2022-08-19T01:41:49;97145.19;;;21.85;64.22
47374;BME280;33123;50.118;10.272;2022-08-19T01:44:17;97152.81;;;21.83;63.92
47374;BME280;33123;50.118;10.272;2022-08-19T01:46:47;97143.50;;;21.80;64.05
47374;BME280;33123;50.118;10.272;2022-08-19T01:49:15;97156.47;;;21.78;64.10
47374;BME280;33123;50.118;10.272;2022-08-19T01:51:42;97159.50;;;21.77;64.20
47374;BME280;33123;50.118;10.272;2022-08-19T01:54:09;97164.41;;;21.75;63.98
47374;BME280;33123;50.118;10.272;2022-08-19T01:56:37;97178.47;;;21.72;64.21
47374;BME280;33123;50.118;10.272;2022-08-19T01:59:10;97180.69;;;21.70;64.66
47374;BME280;33123;50.118;10.272;2022-08-19T02:01:37;97179.91;;;21.69;64.35
47374;BME280;33123;50.118;10.272;2022-08-19T02:04:04;97179.91;;;21.69;64.49
47374;BME280;33123;50.118;10.272;2022-08-19T02:06:31;97176.44;;;21.69;64.15
47374;BME280;33123;50.118;10.272;2022-08-19T02:08:58;97179.56;;;21.71;64.04
47374;BME280;33123;50.118;10.272;2022-08-19T02:11:27;97106.22;;;21.21;64.22
47374;BME280;33123;50.118;10.272;2022-08-19T02:13:56;97189.53;;;21.70;64.22
47374;BME280;33123;50.118;10.272;2022-08-19T02:16:24;97194.09;;;21.70;64.74
47374;BME280;33123;50.118;10.272;2022-08-19T02:18:51;97203.28;;;21.69;64.63
47374;BME280;33123;50.118;10.272;2022-08-19T02:21:19;97208.63;;;21.69;64.75
47374;BME280;33123;50.118;10.272;2022-08-19T02:23:47;97159.81;;;21.42;64.50
47374;BME280;33123;50.118;10.272;2022-08-19T02:26:16;97199.66;;;21.65;64.57
47374;BME280;33123;50.118;10.272;2022-08-19T02:28:43;97189.28;;;21.63;65.03
47374;BME280;33123;50.118;10.272;2022-08-19T02:31:10;97188.50;;;21.63;64.55
47374;BME280;33123;50.118;10.272;2022-08-19T02:33:39;97178.13;;;21.61;64.86
47374;BME280;33123;50.118;10.272;2022-08-19T02:36:07;97174.97;;;21.59;64.67
47374;BME280;33123;50.118;10.272;2022-08-19T02:38:34;97171.69;;;21.53;64.58
47374;BME280;33123;50.118;10.272;2022-08-19T02:41:02;97182.44;;;21.53;64.71
47374;BME280;33123;50.118;10.272;2022-08-19T02:43:30;97187.78;;;21.53;64.62
47374;BME280;33123;50.118;10.272;2022-08-19T02:45:57;97193.63;;;21.55;64.30
47374;BME280;33123;50.118;10.272;2022-08-19T02:48:25;97197.88;;;21.56;64.29
47374;BME280;33123;50.118;10.272;2022-08-19T02:50:53;97207.03;;;21.55;64.86
47374;BME280;33123;50.118;10.272;2022-08-19T02:53:21;97209.72;;;21.55;65.04
47374;BME280;33123;50.118;10.272;2022-08-19T02:55:49;97217.63;;;21.52;65.44
47374;BME280;33123;50.118;10.272;2022-08-19T02:58:17;97173.16;;;21.30;65.17
47374;BME280;33123;50.118;10.272;2022-08-19T03:00:44;97199.84;;;21.47;66.00
47374;BME280;33123;50.118;10.272;2022-08-19T03:03:12;97200.75;;;21.51;65.71
47374;BME280;33123;50.118;10.272;2022-08-19T03:05:39;97206.13;;;21.51;65.32
47374;BME280;33123;50.118;10.272;2022-08-19T03:08:08;97201.53;;;21.52;65.25
47374;BME280;33123;50.118;10.272;2022-08-19T03:10:41;97201.53;;;21.52;65.34
47374;BME280;33123;50.118;10.272;2022-08-19T03:13:09;97203.44;;;21.51;65.12
47374;BME280;33123;50.118;10.272;2022-08-19T03:15:39;97208.78;;;21.51;65.13
47374;BME280;33123;50.118;10.272;2022-08-19T03:18:06;97206.13;;;21.51;65.06
47374;BME280;33123;50.118;10.272;2022-08-19T03:20:32;97196.31;;;21.55;64.88
47374;BME280;33123;50.118;10.272;2022-08-19T03:22:59;97201.34;;;21.57;65.30
47374;BME280;33123;50.118;10.272;2022-08-19T03:25:28;97198.31;;;21.58;64.93
47374;BME280;33123;50.118;10.272;2022-08-19T03:27:55;97189.38;;;21.54;64.79
47374;BME280;33123;50.118;10.272;2022-08-19T03:30:21;97205.03;;;21.65;65.23
47374;BME280;33123;50.118;10.272;2022-08-19T03:32:48;97202.81;;;21.67;64.78
47374;BME280;33123;50.118;10.272;2022-08-19T03:35:14;97205.94;;;21.69;65.05
47374;BME280;33123;50.118;10.272;2022-08-19T03:37:41;97199.47;;;21.70;65.08
47374;BME280;33123;50.118;10.272;2022-08-19T03:40:08;97211.56;;;21.76;64.66
47374;BME280;33123;50.118;10.272;2022-08-19T03:42:36;97207.31;;;21.75;64.87
47374;BME280;33123;50.118;10.272;2022-08-19T03:45:04;97214.38;;;21.79;64.56
47374;BME280;33123;50.118;10.272;2022-08-19T03:47:32;97209.16;;;21.83;64.28
47374;BME280;33123;50.118;10.272;2022-08-19T03:49:59;97221.09;;;21.85;64.39
47374;BME280;33123;50.118;10.272;2022-08-19T03:52:25;97216.19;;;21.87;64.20
47374;BME280;33123;50.118;10.272;2022-08-19T03:58:15;97208.94;;;21.88;64.51
47374;BME280;33123;50.118;10.272;2022-08-19T04:00:42;97143.22;;;21.49;64.25
47374;BME280;33123;50.118;10.272;2022-08-19T04:03:08;97205.25;;;21.93;64.18
47374;BME280;33123;50.118;10.272;2022-08-19T04:05:35;97196.88;;;21.94;64.20
47374;BME280;33123;50.118;10.272;2022-08-19T04:08:02;97194.28;;;21.98;63.93
47374;BME280;33123;50.118;10.272;2022-08-19T04:10:31;97195.22;;;22.02;64.07
47374;BME280;33123;50.118;10.272;2022-08-19T04:12:57;97195.53;;;22.00;63.83
47374;BME280;33123;50.118;10.272;2022-08-19T04:15:26;97199.78;;;22.01;64.18
47374;BME280;33123;50.118;10.272;2022-08-19T04:17:54;97195.34;;;22.05;63.71
47374;BME280;33123;50.118;10.272;2022-08-19T04:20:20;97198.47;;;22.07;63.72
47374;BME280;33123;50.118;10.272;2022-08-19T04:22:47;97204.28;;;22.09;63.95
47374;BME280;33123;50.118;10.272;2022-08-19T04:25:14;97191.34;;;22.11;63.68
47374;BME280;33123;50.118;10.272;2022-08-19T04:27:40;97189.09;;;22.13;63.96
47374;BME280;33123;50.118;10.272;2022-08-19T04:30:13;97181.53;;;22.16;63.85
47374;BME280;33123;50.118;10.272;2022-08-19T04:32:41;97176.94;;;22.16;63.53
47374;BME280;33123;50.118;10.272;2022-08-19T04:35:09;97172.34;;;22.17;63.52
47374;BME280;33123;50.118;10.272;2022-08-19T04:37:35;97171.56;;;22.16;63.62
47374;BME280;33123;50.118;10.272;2022-08-19T04:40:04;97173.78;;;22.14;63.58
47374;BME280;33123;50.118;10.272;2022-08-19T04:42:49;97170.66;;;22.12;63.75
47374;BME280;33123;50.118;10.272;2022-08-19T04:45:15;97176.81;;;22.12;63.67
47374;BME280;33123;50.118;10.272;2022-08-19T04:47:44;97172.06;;;22.09;63.83
47374;BME280;33123;50.118;10.272;2022-08-19T04:50:10;97188.44;;;22.17;63.54
47374;BME280;33123;50.118;10.272;2022-08-19T04:52:37;97198.84;;;22.18;63.99
47374;BME280;33123;50.118;10.272;2022-08-19T04:55:05;97206.56;;;22.20;63.77
47374;BME280;33123;50.118;10.272;2022-08-19T04:57:31;97223.13;;;22.22;63.63
47374;BME280;33123;50.118;10.272;2022-08-19T04:59:58;97231.97;;;22.22;63.68
47374;BME280;33123;50.118;10.272;2022-08-19T05:02:25;97232.41;;;22.24;63.55
47374;BME280;33123;50.118;10.272;2022-08-19T05:04:56;97231.75;;;22.27;63.72
47374;BME280;33123;50.118;10.272;2022-08-19T05:07:24;97226.38;;;22.27;63.39
47374;BME280;33123;50.118;10.272;2022-08-19T05:09:51;97230.28;;;22.30;63.35
47374;BME280;33123;50.118;10.272;2022-08-19T05:12:18;97234.22;;;22.32;63.65
47374;BME280;33123;50.118;10.272;2022-08-19T05:14:45;97244.16;;;22.32;63.62
47374;BME280;33123;50.118;10.272;2022-08-19T05:17:13;97248.53;;;22.36;63.44
47374;BME280;33123;50.118;10.272;2022-08-19T05:19:39;97248.66;;;22.40;63.29
47374;BME280;33123;50.118;10.272;2022-08-19T05:22:25;97220.25;;;22.27;63.40
47374;BME280;33123;50.118;10.272;2022-08-19T05:25:05;97253.47;;;22.47;63.20
47374;BME280;33123;50.118;10.272;2022-08-19T05:27:32;97243.97;;;22.49;63.20
47374;BME280;33123;50.118;10.272;2022-08-19T05:29:59;97251.69;;;22.51;63.47
47374;BME280;33123;50.118;10.272;2022-08-19T05:32:27;97247.44;;;22.50;63.30
47374;BME280;33123;50.118;10.272;2022-08-19T05:34:54;97255.59;;;22.53;63.33
47374;BME280;33123;50.118;10.272;2022-08-19T05:37:20;97265.69;;;22.56;63.44
47374;BME280;33123;50.118;10.272;2022-08-19T05:39:49;97272.63;;;22.57;63.63
47374;BME280;33123;50.118;10.272;2022-08-19T05:42:15;97268.81;;;22.58;63.60
47374;BME280;33123;50.118;10.272;2022-08-19T05:44:43;97273.53;;;22.61;63.62
47374;BME280;33123;50.118;10.272;2022-08-19T05:47:12;97279.25;;;22.60;63.47
47374;BME280;33123;50.118;10.272;2022-08-19T05:49:40;97277.00;;;22.62;63.69
47374;BME280;33123;50.118;10.272;2022-08-19T05:52:09;97279.25;;;22.60;63.61
47374;BME280;33123;50.118;10.272;2022-08-19T05:54:37;97271.28;;;22.51;63.76
47374;BME280;33123;50.118;10.272;2022-08-19T05:57:07;97288.97;;;22.64;63.72
47374;BME280;33123;50.118;10.272;2022-08-19T05:59:34;97295.59;;;22.67;63.83
47374;BME280;33123;50.118;10.272;2022-08-19T06:02:03;97291.88;;;22.59;63.84
47374;BME280;33123;50.118;10.272;2022-08-19T06:04:30;97293.00;;;22.58;63.86
47374;BME280;33123;50.118;10.272;2022-08-19T06:06:56;97289.66;;;22.61;64.10
47374;BME280;33123;50.118;10.272;2022-08-19T06:09:23;97305.09;;;22.64;64.21
47374;BME280;33123;50.118;10.272;2022-08-19T06:11:51;97304.00;;;22.65;63.94
47374;BME280;33123;50.118;10.272;2022-08-19T06:14:23;97305.22;;;22.68;63.91
47374;BME280;33123;50.118;10.272;2022-08-19T06:16:50;97300.63;;;22.69;64.03
47374;BME280;33123;50.118;10.272;2022-08-19T06:19:20;97311.50;;;22.72;64.06
47374;BME280;33123;50.118;10.272;2022-08-19T06:21:50;97280.13;;;22.52;64.01
47374;BME280;33123;50.118;10.272;2022-08-19T06:24:19;97312.28;;;22.73;63.83
47374;BME280;33123;50.118;10.272;2022-08-19T06:26:49;97307.56;;;22.70;63.96
47374;BME280;33123;50.118;10.272;2022-08-19T06:29:22;97317.41;;;22.65;64.14
47374;BME280;33123;50.118;10.272;2022-08-19T06:31:52;97297.69;;;22.49;64.25
47374;BME280;33123;50.118;10.272;2022-08-19T06:34:20;97324.09;;;22.59;64.60
47374;BME280;33123;50.118;10.272;2022-08-19T06:36:48;97320.19;;;22.57;64.86
47374;BME280;33123;50.118;10.272;2022-08-19T06:39:17;97327.47;;;22.56;65.04
47374;BME280;33123;50.118;10.272;2022-08-19T06:41:50;97325.44;;;22.53;65.19
47374;BME280;33123;50.118;10.272;2022-08-19T06:44:19;97322.75;;;22.53;65.43
47374;BME280;33123;50.118;10.272;2022-08-19T06:46:47;97325.00;;;22.51;65.36
47374;BME280;33123;50.118;10.272;2022-08-19T06:49:14;97315.81;;;22.52;65.68
47374;BME280;33123;50.118;10.272;2022-08-19T06:51:41;97320.41;;;22.52;65.74
47374;BME280;33123;50.118;10.272;2022-08-19T06:54:09;97330.03;;;22.53;65.60
47374;BME280;33123;50.118;10.272;2022-08-19T06:56:37;97327.03;;;22.54;65.67
47374;BME280;33123;50.118;10.272;2022-08-19T06:59:06;97337.44;;;22.56;65.51
47374;BME280;33123;50.118;10.272;2022-08-19T07:01:37;97335.19;;;22.58;65.78
47374;BME280;33123;50.118;10.272;2022-08-19T07:04:07;97329.38;;;22.56;65.80
47374;BME280;33123;50.118;10.272;2022-08-19T07:06:35;97329.72;;;22.54;65.91
47374;BME280;33123;50.118;10.272;2022-08-19T07:09:02;97334.28;;;22.54;65.91
47374;BME280;33123;50.118;10.272;2022-08-19T07:11:30;97332.41;;;22.54;66.00
47374;BME280;33123;50.118;10.272;2022-08-19T07:13:57;97330.50;;;22.55;66.32
47374;BME280;33123;50.118;10.272;2022-08-19T07:16:24;97332.41;;;22.54;66.11
47374;BME280;33123;50.118;10.272;2022-08-19T07:18:51;97328.31;;;22.48;66.48
47374;BME280;33123;50.118;10.272;2022-08-19T07:21:22;97333.19;;;22.55;67.29
47374;BME280;33123;50.118;10.272;2022-08-19T07:23:50;97331.94;;;22.52;67.92
47374;BME280;33123;50.118;10.272;2022-08-19T07:26:19;97340.66;;;22.49;68.46
47374;BME280;33123;50.118;10.272;2022-08-19T07:28:47;97342.44;;;22.45;68.31
47374;BME280;33123;50.118;10.272;2022-08-19T07:31:16;97343.56;;;22.44;68.69
47374;BME280;33123;50.118;10.272;2022-08-19T07:33:45;97345.00;;;22.42;69.17
47374;BME280;33123;50.118;10.272;2022-08-19T07:36:14;97352.47;;;22.36;69.33
47374;BME280;33123;50.118;10.272;2022-08-19T07:38:44;97354.72;;;22.34;69.51
47374;BME280;33123;50.118;10.272;2022-08-19T07:41:15;97359.16;;;22.30;69.79
47374;BME280;33123;50.118;10.272;2022-08-19T07:43:43;97362.53;;;22.27;70.76
47374;BME280;33123;50.118;10.272;2022-08-19T07:46:11;97365.22;;;22.27;70.98
47374;BME280;33123;50.118;10.272;2022-08-19T07:48:39;97363.63;;;22.26;71.13
47374;BME280;33123;50.118;10.272;2022-08-19T07:51:09;97365.06;;;22.23;71.73
47374;BME280;33123;50.118;10.272;2022-08-19T07:53:37;97368.88;;;22.22;72.46
47374;BME280;33123;50.118;10.272;2022-08-19T07:56:05;97362.72;;;22.22;73.21
47374;BME280;33123;50.118;10.272;2022-08-19T07:58:37;97362.72;;;22.22;73.67
47374;BME280;33123;50.118;10.272;2022-08-19T08:01:05;97363.50;;;22.22;73.90
47374;BME280;33123;50.118;10.272;2022-08-19T08:03:32;97365.06;;;22.23;73.59
47374;BME280;33123;50.118;10.272;2022-08-19T08:06:19;97372.00;;;22.24;74.00
47374;BME280;33123;50.118;10.272;2022-08-19T08:09:04;97376.59;;;22.24;73.94
47374;BME280;33123;50.118;10.272;2022-08-19T08:11:39;97375.66;;;22.20;73.94
47374;BME280;33123;50.118;10.272;2022-08-19T08:14:07;97371.88;;;22.21;74.30
47374;BME280;33123;50.118;10.272;2022-08-19T08:16:36;97379.91;;;22.21;74.25
47374;BME280;33123;50.118;10.272;2022-08-19T08:19:03;97376.78;;;22.19;75.12
47374;BME280;33123;50.118;10.272;2022-08-19T08:21:30;97379.91;;;22.21;75.13
47374;BME280;33123;50.118;10.272;2022-08-19T08:23:57;97378.81;;;22.22;74.98
47374;BME280;33123;50.118;10.272;2022-08-19T08:26:24;97375.47;;;22.25;75.18
47374;BME280;33123;50.118;10.272;2022-08-19T08:28:53;97378.28;;;22.28;75.63
47374;BME280;33123;50.118;10.272;2022-08-19T08:31:20;97347.94;;;22.16;75.42
47374;BME280;33123;50.118;10.272;2022-08-19T08:33:47;97379.31;;;22.36;75.10
47374;BME280;33123;50.118;10.272;2022-08-19T08:36:14;97379.44;;;22.39;74.64
47374;BME280;33123;50.118;10.272;2022-08-19T08:38:42;97378.34;;;22.40;75.07
47374;BME280;33123;50.118;10.272;2022-08-19T08:41:16;97385.75;;;22.44;75.89
47374;BME280;33123;50.118;10.272;2022-08-19T08:43:48;97376.66;;;22.48;76.04
47374;BME280;33123;50.118;10.272;2022-08-19T08:46:21;97386.13;;;22.54;75.83
47374;BME280;33123;50.118;10.272;2022-08-19T08:48:49;97384.78;;;22.60;75.42
47374;BME280;33123;50.118;10.272;2022-08-19T08:51:24;97387.25;;;22.65;74.56
47374;BME280;33123;50.118;10.272;2022-08-19T08:53:52;97381.22;;;22.69;74.54
47374;BME280;33123;50.118;10.272;2022-08-19T08:56:20;97388.28;;;22.73;74.99
47374;BME280;33123;50.118;10.272;2022-08-19T08:58:53;97389.50;;;22.76;74.11
47374;BME280;33123;50.118;10.272;2022-08-19T09:01:24;97388.50;;;22.80;75.02
47374;BME280;33123;50.118;10.272;2022-08-19T09:03:50;97391.66;;;22.82;74.55
47374;BME280;33123;50.118;10.272;2022-08-19T09:06:26;97393.66;;;22.85;74.72
47374;BME280;33123;50.118;10.272;2022-08-19T09:09:00;97398.09;;;22.90;75.15
47374;BME280;33123;50.118;10.272;2022-08-19T09:11:40;97391.38;;;22.96;75.78
47374;BME280;33123;50.118;10.272;2022-08-19T09:14:18;97393.19;;;23.04;75.50
47374;BME280;33123;50.118;10.272;2022-08-19T09:16:48;97392.28;;;23.12;75.69
47374;BME280;33123;50.118;10.272;2022-08-19T09:19:16;97389.81;;;23.19;75.30
47374;BME280;33123;50.118;10.272;2022-08-19T09:21:44;97394.97;;;23.25;74.77
47374;BME280;33123;50.118;10.272;2022-08-19T09:24:11;97397.88;;;23.32;74.49
47374;BME280;33123;50.118;10.272;2022-08-19T09:26:38;97393.53;;;23.39;75.04
47374;BME280;33123;50.118;10.272;2022-08-19T09:29:05;97385.31;;;23.48;74.08
47374;BME280;33123;50.118;10.272;2022-08-19T09:31:32;97381.06;;;23.59;75.25
47374;BME280;33123;50.118;10.272;2022-08-19T09:34:00;97370.88;;;23.77;75.10
47374;BME280;33123;50.118;10.272;2022-08-19T09:36:29;97368.25;;;23.93;73.62
47374;BME280;33123;50.118;10.272;2022-08-19T09:38:58;97362.91;;;24.09;72.87
47374;BME280;33123;50.118;10.272;2022-08-19T09:41:27;97338.38;;;24.10;73.32
47374;BME280;33123;50.118;10.272;2022-08-19T09:43:55;97365.06;;;24.43;72.47
47374;BME280;33123;50.118;10.272;2022-08-19T09:46:23;97340.00;;;24.43;72.54
47374;BME280;33123;50.118;10.272;2022-08-19T09:48:51;97359.72;;;24.75;70.63
47374;BME280;33123;50.118;10.272;2022-08-19T09:51:22;97354.59;;;24.86;68.86
47374;BME280;33123;50.118;10.272;2022-08-19T09:53:50;97358.50;;;25.04;67.36
47374;BME280;33123;50.118;10.272;2022-08-19T09:56:19;97357.75;;;25.19;68.61
47374;BME280;33123;50.118;10.272;2022-08-19T09:58:46;97354.94;;;25.32;66.65
47374;BME280;33123;50.118;10.272;2022-08-19T10:01:16;97357.31;;;25.33;63.56
47374;BME280;33123;50.118;10.272;2022-08-19T10:03:47;97347.88;;;25.43;63.94
47374;BME280;33123;50.118;10.272;2022-08-19T10:06:16;97338.38;;;25.49;64.51
47374;BME280;33123;50.118;10.272;2022-08-19T10:08:44;97341.94;;;25.53;64.79
47374;BME280;33123;50.118;10.272;2022-08-19T10:11:12;97345.13;;;25.59;63.50
47374;BME280;33123;50.118;10.272;2022-08-19T10:13:42;97351.03;;;25.64;62.39
47374;BME280;33123;50.118;10.272;2022-08-19T10:16:16;97352.63;;;25.65;62.28
47374;BME280;33123;50.118;10.272;2022-08-19T10:18:45;97351.47;;;25.66;61.21
47374;BME280;33123;50.118;10.272;2022-08-19T10:21:14;97361.91;;;25.68;60.81
47374;BME280;33123;50.118;10.272;2022-08-19T10:23:43;97362.69;;;25.68;60.22
47374;BME280;33123;50.118;10.272;2022-08-19T10:26:15;97370.00;;;25.68;59.91
47374;BME280;33123;50.118;10.272;2022-08-19T10:28:42;97370.66;;;25.61;60.84
47374;BME280;33123;50.118;10.272;2022-08-19T10:31:11;97375.44;;;25.52;59.55
47374;BME280;33123;50.118;10.272;2022-08-19T10:33:39;97375.03;;;25.34;56.98
47374;BME280;33123;50.118;10.272;2022-08-19T10:36:08;97380.28;;;25.27;56.03
47374;BME280;33123;50.118;10.272;2022-08-19T10:38:36;97380.09;;;25.20;58.18
47374;BME280;33123;50.118;10.272;2022-08-19T10:41:07;97358.97;;;25.06;59.97
47374;BME280;33123;50.118;10.272;2022-08-19T10:43:36;97366.34;;;25.09;57.91
47374;BME280;33123;50.118;10.272;2022-08-19T10:46:04;97363.22;;;25.07;56.14
47374;BME280;33123;50.118;10.272;2022-08-19T10:48:31;97367.50;;;25.08;57.42
47374;BME280;33123;50.118;10.272;2022-08-19T10:50:58;97370.97;;;25.09;57.39
47374;BME280;33123;50.118;10.272;2022-08-19T10:53:42;97367.59;;;25.12;57.93
47374;BME280;33123;50.118;10.272;2022-08-19T10:56:08;97368.78;;;25.14;56.65
47374;BME280;33123;50.118;10.272;2022-08-19T10:58:54;97374.53;;;25.13;57.67
47374;BME280;33123;50.118;10.272;2022-08-19T11:01:21;97367.59;;;25.12;58.96
47374;BME280;33123;50.118;10.272;2022-08-19T11:03:48;97374.78;;;25.08;57.54
47374;BME280;33123;50.118;10.272;2022-08-19T11:06:15;97366.59;;;25.04;60.14
47374;BME280;33123;50.118;10.272;2022-08-19T11:08:42;97361.13;;;25.00;60.13
47374;BME280;33123;50.118;10.272;2022-08-19T11:11:11;97363.38;;;24.98;61.79
47374;BME280;33123;50.118;10.272;2022-08-19T11:13:39;97357.56;;;24.96;57.72
47374;BME280;33123;50.118;10.272;2022-08-19T11:16:09;97358.06;;;25.02;56.09
47374;BME280;33123;50.118;10.272;2022-08-19T11:18:40;97354.25;;;25.03;53.56
47374;BME280;33123;50.118;10.272;2022-08-19T11:21:09;97364.47;;;25.10;53.95
47374;BME280;33123;50.118;10.272;2022-08-19T11:23:37;97359.59;;;25.15;54.52
47374;BME280;33123;50.118;10.272;2022-08-19T11:26:04;97353.91;;;25.20;56.48
47374;BME280;33123;50.118;10.272;2022-08-19T11:28:30;97355.81;;;25.20;52.68
47374;BME280;33123;50.118;10.272;2022-08-19T11:30:57;97350.63;;;25.27;52.37
47374;BME280;33123;50.118;10.272;2022-08-19T11:33:25;97358.09;;;25.34;52.17
47374;BME280;33123;50.118;10.272;2022-08-19T11:35:52;97356.59;;;25.36;52.62
47374;BME280;33123;50.118;10.272;2022-08-19T11:38:19;97356.03;;;25.46;54.21
47374;BME280;33123;50.118;10.272;2022-08-19T11:40:54;97352.81;;;25.57;51.35
47374;BME280;33123;50.118;10.272;2022-08-19T11:43:20;97360.72;;;25.65;50.23
47374;BME280;33123;50.118;10.272;2022-08-19T11:45:47;97350.53;;;25.74;49.70
47374;BME280;33123;50.118;10.272;2022-08-19T11:48:14;97349.19;;;25.84;49.26
47374;BME280;33123;50.118;10.272;2022-08-19T11:50:42;97344.38;;;25.93;49.04
47374;BME280;33123;50.118;10.272;2022-08-19T11:53:09;97342.59;;;26.01;48.29
47374;BME280;33123;50.118;10.272;2022-08-19T11:55:37;97338.88;;;26.09;48.58
47374;BME280;33123;50.118;10.272;2022-08-19T11:58:04;97328.22;;;26.16;47.57
47374;BME280;33123;50.118;10.272;2022-08-19T12:00:31;97331.06;;;26.23;47.31
47374;BME280;33123;50.118;10.272;2022-08-19T12:02:59;97333.97;;;26.34;48.40
47374;BME280;33123;50.118;10.272;2022-08-19T12:05:25;97327.91;;;26.41;47.10
47374;BME280;33123;50.118;10.272;2022-08-19T12:07:53;97329.19;;;26.47;47.29
47374;BME280;33123;50.118;10.272;2022-08-19T12:10:21;97332.75;;;26.51;46.67
47374;BME280;33123;50.118;10.272;2022-08-19T12:12:48;97332.47;;;26.56;47.02
47374;BME280;33123;50.118;10.272;2022-08-19T12:15:15;97332.19;;;26.65;47.89
47374;BME280;33123;50.118;10.272;2022-08-19T12:17:42;97334.59;;;26.70;45.84
47374;BME280;33123;50.118;10.272;2022-08-19T12:20:11;97330.47;;;26.76;45.94
47374;BME280;33123;50.118;10.272;2022-08-19T12:22:41;97329.44;;;26.84;46.06
47374;BME280;33123;50.118;10.272;2022-08-19T12:25:31;97333.47;;;26.94;47.00
47374;BME280;33123;50.118;10.272;2022-08-19T12:27:58;97287.94;;;26.73;45.83
47374;BME280;33123;50.118;10.272;2022-08-19T12:30:24;97331.03;;;27.08;45.12
47374;BME280;33123;50.118;10.272;2022-08-19T12:32:51;97336.56;;;27.15;46.01
47374;BME280;33123;50.118;10.272;2022-08-19T12:35:18;97336.22;;;27.20;45.10
47374;BME280;33123;50.118;10.272;2022-08-19T12:37:46;97337.84;;;27.25;44.54
47374;BME280;33123;50.118;10.272;2022-08-19T12:40:14;97341.69;;;27.24;45.62
47374;BME280;33123;50.118;10.272;2022-08-19T12:42:44;97340.91;;;27.23;44.51
47374;BME280;33123;50.118;10.272;2022-08-19T12:45:12;97338.59;;;27.22;44.13
47374;BME280;33123;50.118;10.272;2022-08-19T12:47:39;97329.69;;;27.21;44.21
47374;BME280;33123;50.118;10.272;2022-08-19T12:50:07;97337.13;;;27.28;45.06
47374;BME280;33123;50.118;10.272;2022-08-19T12:52:34;97342.84;;;27.23;43.37
47374;BME280;33123;50.118;10.272;2022-08-19T12:55:03;97346.22;;;27.16;43.06
47374;BME280;33123;50.118;10.272;2022-08-19T12:57:30;97354.16;;;27.05;43.63
47374;BME280;33123;50.118;10.272;2022-08-19T13:00:03;97360.53;;;26.94;45.18